Tiempo atmosférico en la estación meteorológica de Sineu, Illes Balears (120 m.)



Fecha
DESCASC
Temp. máxima en grados centígrados (hora)
DESCASC
Temp. mínima en grados centígrados (hora)
DESCASC
Temp. media en grados centígrados
DESCASC
Racha de viento máxima en m/sg (hora)
DESCASC
Velocidad máxima media en intervalos de 10 minutos(hora)
DESCASC
Precipitaciones diarias en mm
DESCASC
Precipitaciones de 00:00 a 06:00 en mm
DESCASC
Precipitaciones de 06:00 a 12:00 en mm
DESCASC
Precipitaciones de 12:00 a 18:00 en mm
DESCASC
Precipitaciones de 18:00 a 24:00 en mm
DESCASC
16-01-2020 16.7 (15:30) 2.4 (07:30) 9.6 4.72 (12:50) 2.5 (12:30) 0 0 0 0 0
15-01-2020 14.8 (11:30) 5.2 (23:59) 10 7.5 (14:10) 4.17 (14:00) 0 0 0 0 0
14-01-2020 15.2 (13:30) 7.5 (23:10) 11.3 8.06 (13:10) 3.89 (12:50) 0 0 0 0 0
13-01-2020 14.1 (14:30) 0.4 (05:10) 7.3 7.22 (15:20) 4.44 (15:20) 0 0 0 0 0
12-01-2020 13.4 (13:30) 1.3 (00:00) 7.3 6.94 (14:10) 4.72 (13:50) 0 0 0 0 0
11-01-2020 12.3 (11:10) 4.6 (00:00) 8.5 13.06 (13:00) 8.06 (12:40) 0 0 0 0 0
10-01-2020 12.4 (12:50) 3.8 (00:00) 8.1 12.78 (22:00) 7.78 (23:30) 3.8 0 0 3.8 0
09-01-2020 16.2 (14:40) 2 (00:00) 9.1 4.17 (13:00) 2.22 (15:30) 0 0 0 0 0
08-01-2020 -- (--) -- (--) -- -- (--) -- (--) -- 0 0 -- 0
07-01-2020 15.9 (14:00) 5.6 (00:00) 10.7 3.33 (11:40) 1.94 (11:40) 0 0 0 0 0
06-01-2020 13.3 (14:00) 2.8 (00:00) 8.1 3.06 (12:10) 1.67 (12:20) 0 0 0 0 0
05-01-2020 17.3 (14:20) 2.4 (00:00) 9.8 3.89 (16:20) 2.5 (16:20) 0 0 0 0 0
04-01-2020 16 (14:20) 4.7 (00:00) 10.3 6.11 (15:20) 3.33 (15:20) 0 0 0 0 0
03-01-2020 14.6 (13:40) 7.8 (00:00) 11.2 5.56 (13:50) 3.06 (12:10) 0 0 0 0 0
02-01-2020 15.6 (15:30) 6.6 (00:00) 11.1 5.56 (16:00) 2.78 (16:00) 0 0 0 0 0
01-01-2020 13.7 (13:50) 4.1 (00:00) 8.9 3.06 (16:50) 1.67 (16:50) 0 0 0 0 0
31-12-2019 16.1 (16:30) 4 (00:00) 10.1 4.17 (15:30) 2.22 (15:30) 0 0 0 0 0
30-12-2019 16 (15:10) 4 (00:00) 10 -- (--) -- (--) 0 0 0 0 0
29-12-2019 13.5 (13:30) 4.7 (00:00) 9.1 4.72 (15:40) 2.78 (15:20) 0 0 0 0 0
28-12-2019 15 (14:30) 5.1 (00:00) 10 5.56 (13:50) 3.61 (13:10) 0 0 0 0 0
27-12-2019 17.3 (14:50) 6.4 (00:00) 11.8 6.11 (15:00) 3.33 (15:00) 0 0 0 0 0
26-12-2019 20.5 (13:00) 7.1 (00:00) 13.8 8.06 (16:20) 5 (16:20) 0 0 0 0 0
25-12-2019 21.2 (13:40) 5.8 (00:00) 13.5 6.67 (14:50) 3.61 (15:00) 0 0 0 0 0
24-12-2019 20.7 (14:00) 5.9 (00:00) 13.3 4.72 (11:20) 2.78 (11:40) 0 0 0 0 0
23-12-2019 17.6 (13:50) 11.2 (00:00) 14.4 17.5 (06:00) 11.94 (06:00) 0 0 0 0 0
22-12-2019 18.8 (13:30) 14.9 (00:00) 16.8 16.39 (00:40) 8.61 (00:40) 0 0 0 0 0
21-12-2019 19.4 (11:50) 15.5 (00:00) 17.4 16.94 (23:59) 9.44 (17:50) 2.6 2.6 0 0 0
20-12-2019 16.9 (13:30) 13.9 (00:00) 15.4 17.22 (23:50) 7.78 (23:50) 3.8 0 2 0.6 1.2

Gráficas

Temp. máximas Temp. mínimas Temp. medias Precipitaciones Rachas de viento máximas Velocidades máximas media en intervalos de 10 minutos

Datos horarios

Fecha y hora oficial Temperatura (ºC) Velocidad del viento (km/h) Dirección del viento Racha (km/h) Dirección de racha Precipitación (mm) Presión (hPa) Tendencia (hPa) Humedad (%)
2020-01-18 23:00:00 6.2 0 Calma 6 Sur 0 -- -- 88
2020-01-18 22:00:00 6.8 3 Sur 4 Sur 0 -- -- 86
2020-01-18 21:00:00 6.8 0 Calma 2 Sur 0 -- -- 81
2020-01-18 20:00:00 7.9 0 Calma 4 Sudoeste 0 -- -- 75
2020-01-18 19:00:00 9.9 0 Calma 8 Sudoeste 0 -- -- 67
2020-01-18 18:00:00 12.6 4 Sur 12 Sudoeste 0 -- -- 53
2020-01-18 17:00:00 15.2 8 Sudoeste 17 Sudoeste 0 -- -- 46
2020-01-18 16:00:00 15.8 8 Sudoeste 18 Sur 0 -- -- 49
2020-01-18 15:00:00 15.6 7 Sudoeste 15 Sudoeste 0 -- -- 51
2020-01-18 14:00:00 14.8 10 Sudoeste 16 Sudoeste 0 -- -- 58
2020-01-18 13:00:00 13.2 6 Sur 13 Sur 0 -- -- 74
2020-01-18 12:00:00 12.1 3 Sudoeste 8 Sudoeste 0 -- -- 85
2020-01-18 11:00:00 8.9 0 Calma 3 Oeste 0 -- -- 99
2020-01-18 10:00:00 6.2 0 Calma 0 Calma 0 -- -- 98
2020-01-18 09:00:00 4.1 0 Calma 2 Sur 0 -- -- 97
2020-01-18 08:00:00 3.9 0 Calma 3 Este 0 -- -- 97
2020-01-18 07:00:00 3.3 0 Calma 4 Sudeste 0 -- -- 93
2020-01-18 06:00:00 3.5 0 Calma 3 Sudeste 0 -- -- 90
2020-01-18 05:00:00 4 0 Calma 2 Sur 0 -- -- 88
2020-01-18 04:00:00 4.1 0 Calma 3 Sudoeste 0 -- -- 86
2020-01-18 03:00:00 5.1 0 Calma 6 Noroeste 0 -- -- 84
2020-01-18 02:00:00 6.6 4 Sur 10 Sudeste 0 -- -- 82
2020-01-18 01:00:00 7.5 0 Calma 10 Sur 0 -- -- 73
2020-01-18 00:00:00 8.5 6 Sur 11 Sur 0 -- -- 71
2020-01-17 23:00:00 8.3 2 Sudoeste 9 Norte 0 -- -- 72
2020-01-17 22:00:00 9.4 3 Sur 8 Sur 0 -- -- 67
2020-01-17 21:00:00 10.9 2 Sudeste 15 Sudoeste 0 -- -- 62
2020-01-17 20:00:00 12.3 9 Sudoeste 21 Sudoeste 0 -- -- 55
2020-01-17 19:00:00 13 13 Sudoeste 23 Sudoeste 0 -- -- 54
2020-01-17 18:00:00 14.3 11 Oeste 21 Oeste 0 -- -- 42
2020-01-17 17:00:00 17.3 6 Oeste 15 Oeste 0 -- -- 35
2020-01-17 16:00:00 17.5 7 Oeste 24 Sudoeste 0 -- -- 39
2020-01-17 15:00:00 16.9 15 Sudoeste 30 Sudoeste 0 -- -- 44
2020-01-17 14:00:00 16.5 21 Sudoeste 41 Oeste 0 -- -- 48
2020-01-17 13:00:00 16 23 Sudoeste 42 Oeste 0 -- -- 64
2020-01-17 12:00:00 15.7 18 Sudoeste 36 Sudoeste 0 -- -- 70
2020-01-17 11:00:00 14.7 13 Sudoeste 30 Sudoeste 0 -- -- 82
2020-01-17 10:00:00 13.2 10 Sudoeste 23 Sur 0 -- -- 90
2020-01-17 09:00:00 11.9 6 Sudoeste 19 Sudoeste 0 -- -- 95
2020-01-17 08:00:00 11.3 9 Sudoeste 20 Sudoeste 0 -- -- 95
2020-01-17 07:00:00 10.9 7 Sudoeste 19 Sudoeste 0 -- -- 96
2020-01-17 06:00:00 10.6 4 Sudoeste 14 Sudoeste 0 -- -- 97
2020-01-17 05:00:00 10 4 Sudoeste 12 Sur 0 -- -- 98
2020-01-17 04:00:00 10.1 4 Sudoeste 10 Sur 0 -- -- 97
2020-01-17 03:00:00 8.5 0 Calma 8 Sudoeste 0 -- -- 94
2020-01-17 02:00:00 10 4 Sudoeste 12 Sudoeste 0 -- -- 95
2020-01-17 01:00:00 9.5 0 Calma 10 Sur 0 -- -- 90
2020-01-17 00:00:00 11 5 Sur 12 Sudoeste 0 -- -- 93
2020-01-16 23:00:00 9.8 3 Sur 7 Sur 0 -- -- 96
2020-01-16 22:00:00 9.5 4 Sur 7 Sur 0 -- -- 93
2020-01-16 21:00:00 10 3 Sur 7 Sur 0 -- -- 91
2020-01-16 20:00:00 10.6 3 Sur 7 Sudoeste 0 -- -- 89
2020-01-16 19:00:00 11.5 2 Sudoeste 9 Sur 0 -- -- 86
2020-01-16 18:00:00 13.3 4 Sudoeste 12 Sudoeste 0 -- -- 76
2020-01-16 17:00:00 16.2 6 Sudoeste 12 Sur 0 -- -- 66
2020-01-16 16:00:00 16.7 6 Sudoeste 15 Sudoeste 0 -- -- 66
2020-01-16 15:00:00 16.5 6 Sudoeste 15 Sudoeste 0 -- -- 65
2020-01-16 14:00:00 15.5 8 Sudoeste 15 Sudoeste 0 -- -- 71
2020-01-16 13:00:00 15.5 9 Sudoeste 17 Sudoeste 0 -- -- 69
2020-01-16 12:00:00 15 7 Sudoeste 16 Sudoeste 0 -- -- 72
2020-01-16 11:00:00 13.1 5 Sudoeste 11 Sudoeste 0 -- -- 74
2020-01-16 10:00:00 8.3 0 Calma 8 Sur 0 -- -- 100
2020-01-16 09:00:00 3.2 2 Sur 8 Sur 0 -- -- 99
2020-01-16 08:00:00 2.7 0 Calma 3 Sur 0 -- -- 98
2020-01-16 07:00:00 2.7 0 Calma 3 Sur 0 -- -- 96
2020-01-16 06:00:00 2.9 0 Calma 2 Sudoeste 0 -- -- 96
2020-01-16 05:00:00 2.9 0 Calma 3 Sudoeste 0 -- -- 96
2020-01-16 04:00:00 3.1 0 Calma 3 Sur 0 -- -- 95
2020-01-16 03:00:00 3.6 0 Calma 0 Calma 0 -- -- 95
2020-01-16 02:00:00 4 0 Calma 3 Sur 0 -- -- 95
2020-01-16 01:00:00 4.5 0 Calma 5 Sudoeste 0 -- -- 94
2020-01-16 00:00:00 5.2 0 Calma 4 Sur 0 -- -- 93
2020-01-15 23:00:00 5.6 0 Calma 3 Sudoeste 0 -- -- 92
2020-01-15 22:00:00 5.8 0 Calma 2 Sudoeste 0 -- -- 91
2020-01-15 21:00:00 6.6 0 Calma 4 Sudeste 0 -- -- 89
2020-01-15 20:00:00 7.7 0 Calma 4 Sudoeste 0 -- -- 87
2020-01-15 19:00:00 9.6 3 Sur 7 Sudoeste 0 -- -- 82
2020-01-15 18:00:00 11.3 2 Sudoeste 9 Sudoeste 0 -- -- 77
2020-01-15 17:00:00 12.9 6 Sur 17 Sudoeste 0 -- -- 69
2020-01-15 16:00:00 13.4 10 Sudoeste 21 Sudoeste 0 -- -- 71
2020-01-15 15:00:00 14.1 13 Sudoeste 27 Sudoeste 0 -- -- 65
2020-01-15 14:00:00 14.7 15 Sudoeste 26 Sur 0 -- -- 61
2020-01-15 13:00:00 14.5 11 Sudoeste 24 Sudoeste 0 -- -- 67
2020-01-15 12:00:00 14.3 11 Sudoeste 22 Sudoeste 0 -- -- 68
2020-01-15 11:00:00 14.4 12 Sudoeste 22 Sudoeste 0 -- -- 75
2020-01-15 10:00:00 13 9 Sudoeste 16 Sudoeste 0 -- -- 84
2020-01-15 09:00:00 9.6 3 Sur 8 Sur 0 -- -- 90
2020-01-15 08:00:00 8.5 4 Sur 8 Sur 0 -- -- 93
2020-01-15 07:00:00 7.3 4 Sur 8 Sur 0 -- -- 92
2020-01-15 06:00:00 7.9 4 Sur 7 Sur 0 -- -- 90
2020-01-15 05:00:00 9.2 5 Sur 8 Sur 0 -- -- 88
2020-01-15 04:00:00 10.3 4 Sur 9 Sur 0 -- -- 86
2020-01-15 03:00:00 10.5 4 Sur 18 Sur 0 -- -- 83
2020-01-15 02:00:00 9.2 5 Sudeste 9 Sudeste 0 -- -- 86
2020-01-15 01:00:00 8.8 5 Sur 9 Sur 0 -- -- 83
2020-01-15 00:00:00 7.7 4 Sur 7 Sur 0 -- -- 87
2020-01-14 23:00:00 7.6 4 Sur 10 Sur 0 -- -- 87
2020-01-14 22:00:00 8.5 4 Sur 10 Sur 0 -- -- 86
2020-01-14 21:00:00 8.8 4 Sur 8 Sur 0 -- -- 82
2020-01-14 20:00:00 9.2 4 Sur 8 Sur 0 -- -- 81
2020-01-14 19:00:00 10.1 5 Sur 9 Sur 0 -- -- 79
2020-01-14 18:00:00 11.4 4 Sur 12 Sur 0 -- -- 74
2020-01-14 17:00:00 13.2 4 Sur 21 Sur 0 -- -- 68
2020-01-14 16:00:00 14.5 9 Sur 23 Sudoeste 0 -- -- 61
2020-01-14 15:00:00 14.3 10 Sur 27 Sur 0 -- -- 62
2020-01-14 14:00:00 14.5 11 Sudoeste 29 Sur 0 -- -- 62
2020-01-14 13:00:00 14.6 12 Sur 28 Sur 0 -- -- 64
2020-01-14 12:00:00 13.6 9 Sur 29 Sudoeste 0 -- -- 70
2020-01-14 11:00:00 12.8 7 Sur 20 Sur 0 -- -- 71
2020-01-14 10:00:00 12.3 7 Sur 15 Sur 0 -- -- 75
2020-01-14 09:00:00 9.3 5 Sur 10 Sur 0 -- -- 84
2020-01-14 08:00:00 9.1 5 Sur 9 Sur 0 -- -- 85
2020-01-14 07:00:00 8.8 6 Sur 10 Sur 0 -- -- 87
2020-01-14 06:00:00 8.6 5 Sur 11 Sur 0 -- -- 87
2020-01-14 05:00:00 8.7 6 Sur 13 Sur 0 -- -- 86
2020-01-14 04:00:00 8.6 6 Sur 11 Sur 0 -- -- 85
2020-01-14 03:00:00 8.9 4 Sur 12 Sudoeste 0 -- -- 84
2020-01-14 02:00:00 8.9 5 Sur 13 Sur 0 -- -- 84
2020-01-14 01:00:00 8.5 5 Sur 11 Sur 0 -- -- 85
2020-01-14 00:00:00 9.1 4 Sur 14 Sur 0 -- -- 84
2020-01-13 23:00:00 8.1 4 Sur 9 Sur 0 -- -- 88
2020-01-13 22:00:00 8.6 5 Sur 10 Sur 0 -- -- 87
2020-01-13 21:00:00 8.4 4 Sur 9 Sur 0 -- -- 85
2020-01-13 20:00:00 8.9 5 Sur 9 Sudeste 0 -- -- 84
2020-01-13 19:00:00 9.3 3 Sur 6 Sur 0 -- -- 82
2020-01-13 18:00:00 10.9 3 Sur 10 Sudoeste 0 -- -- 76
2020-01-13 17:00:00 12.7 8 Sudoeste 20 Sur 0 -- -- 70
2020-01-13 16:00:00 13.5 12 Sudoeste 26 Sudoeste 0 -- -- 66
2020-01-13 15:00:00 14 12 Sudoeste 24 Sudoeste 0 -- -- 62
2020-01-13 14:00:00 14 12 Sudoeste 25 Sudoeste 0 -- -- 65
2020-01-13 13:00:00 13.5 14 Sudoeste 24 Oeste 0 -- -- 69
2020-01-13 12:00:00 12.8 11 Sudoeste 24 Sudoeste 0 -- -- 73
2020-01-13 11:00:00 11.3 10 Sudoeste 20 Sudoeste 0 -- -- 82
2020-01-13 10:00:00 6.2 0 Calma 3 Este 0 -- -- 100
2020-01-13 09:00:00 2 0 Calma 3 Sur 0 -- -- 100
2020-01-13 08:00:00 1.1 0 Calma 5 Sur 0 -- -- 98
2020-01-13 07:00:00 2 0 Calma 6 Sur 0 -- -- 97
2020-01-13 06:00:00 2.9 3 Sur 10 Sudoeste 0 -- -- 98
2020-01-13 05:00:00 0.5 2 Sudoeste 7 Sur 0 -- -- 95
2020-01-13 04:00:00 0.8 0 Calma 2 Sudeste 0 -- -- 94
2020-01-13 03:00:00 1.3 0 Calma 5 Sur 0 -- -- 94
2020-01-13 02:00:00 1.6 3 Sur 8 Sur 0 -- -- 94
2020-01-13 01:00:00 1.9 2 Sur 4 Sur 0 -- -- 91
2020-01-13 00:00:00 2.3 0 Calma 3 Noroeste 0 -- -- 90
2020-01-12 23:00:00 3.3 0 Calma 3 Sudoeste 0 -- -- 90
2020-01-12 22:00:00 3.8 0 Calma 6 Sur 0 -- -- 88
2020-01-12 21:00:00 4.9 0 Calma 6 Sur 0 -- -- 87
2020-01-12 20:00:00 6.3 2 Sur 6 Norte 0 -- -- 83
2020-01-12 19:00:00 8.4 0 Calma 13 Norte 0 -- -- 77
2020-01-12 18:00:00 9.9 5 Norte 18 Nordeste 0 -- -- 72
2020-01-12 17:00:00 11.8 13 Nordeste 20 Nordeste 0 -- -- 66
2020-01-12 16:00:00 12.9 11 Nordeste 23 Nordeste 0 -- -- 59
2020-01-12 15:00:00 13.2 16 Nordeste 25 Nordeste 0 -- -- 60
2020-01-12 14:00:00 13.3 15 Nordeste 24 Norte 0 -- -- 59
2020-01-12 13:00:00 13.1 14 Nordeste 23 Nordeste 0 -- -- 60
2020-01-12 12:00:00 12.4 12 Norte 20 Nordeste 0 -- -- 63
2020-01-12 11:00:00 10.7 8 Norte 15 Norte 0 -- -- 71
2020-01-12 10:00:00 7.1 0 Calma 2 Sudeste 0 -- -- 98
2020-01-12 09:00:00 1.9 0 Calma 0 Calma 0 -- -- 96
2020-01-12 08:00:00 1.3 0 Calma 3 Sudoeste 0 -- -- 95
2020-01-12 07:00:00 1.9 0 Calma 4 Sudoeste 0 -- -- 95
2020-01-12 06:00:00 1.9 0 Calma 2 Sudoeste 0 -- -- 92
2020-01-12 05:00:00 2 0 Calma 2 Sur 0 -- -- 91
2020-01-12 04:00:00 2.6 0 Calma 2 Sudoeste 0 -- -- 90
2020-01-12 03:00:00 2.9 0 Calma 2 Sudoeste 0 -- -- 89
2020-01-12 02:00:00 3.8 0 Calma 3 Sudoeste 0 -- -- 88
2020-01-12 01:00:00 4.7 0 Calma 5 Sudoeste 0 -- -- 87
2020-01-12 00:00:00 5.3 0 Calma 6 Noroeste 0 -- -- 88
2020-01-11 23:00:00 6.3 3 Oeste 7 Oeste 0 -- -- 83
2020-01-11 22:00:00 7.4 4 Norte 9 Noroeste 0 -- -- 79
2020-01-11 21:00:00 7.4 3 Noroeste 7 Norte 0 -- -- 79
2020-01-11 20:00:00 8.3 4 Norte 11 Norte 0 -- -- 76
2020-01-11 19:00:00 9.5 11 Norte 19 Norte 0 -- -- 72
2020-01-11 18:00:00 9.9 9 Norte 28 Norte 0 -- -- 67
2020-01-11 17:00:00 11.1 18 Norte 34 Norte 0 -- -- 63
2020-01-11 16:00:00 11.8 24 Norte 37 Norte 0 -- -- 61
2020-01-11 15:00:00 11.8 25 Norte 45 Norte 0 -- -- 61
2020-01-11 14:00:00 11.9 23 Norte 42 Norte 0 -- -- 63
2020-01-11 13:00:00 12 27 Norte 47 Norte 0 -- -- 60
2020-01-11 12:00:00 11.5 25 Norte 41 Nordeste 0 -- -- 62
2020-01-11 11:00:00 12 24 Norte 41 Norte 0 -- -- 65
2020-01-11 10:00:00 10.9 15 Norte 27 Norte 0 -- -- 70
2020-01-11 09:00:00 10.6 14 Norte 32 Norte 0 -- -- 72
2020-01-11 08:00:00 10.8 19 Norte 27 Norte 0 -- -- 74
2020-01-11 07:00:00 10.7 13 Norte 32 Norte 0 -- -- 74
2020-01-11 06:00:00 11.1 19 Norte 32 Nordeste 0 -- -- 73
2020-01-11 05:00:00 11 18 Norte 36 Nordeste 0 -- -- 74
2020-01-11 04:00:00 11.1 17 Norte 33 Norte 0 -- -- 75
2020-01-11 03:00:00 11 18 Norte 35 Norte 0 -- -- 75
2020-01-11 02:00:00 11 21 Norte 44 Norte 0 -- -- 72
2020-01-11 01:00:00 11.2 20 Norte 40 Norte 0 -- -- 71
2020-01-11 00:00:00 11.2 22 Nordeste 41 Nordeste 0 -- -- 71
2020-01-10 23:00:00 11.4 22 Norte 42 Norte 0 -- -- 73
2020-01-10 22:00:00 11.6 26 Nordeste 46 Norte 0 -- -- 74
2020-01-10 21:00:00 11.6 18 Nordeste 37 Norte 0 -- -- 75
2020-01-10 20:00:00 11.7 21 Norte 40 Nordeste 0 -- -- 73
2020-01-10 19:00:00 11.9 22 Nordeste 40 Norte 0 -- -- 73
2020-01-10 18:00:00 11.6 22 Nordeste 40 Norte 0 -- -- 75
2020-01-10 17:00:00 11.5 21 Nordeste 36 Nordeste 0.2 -- -- 83
2020-01-10 16:00:00 11.1 15 Nordeste 35 Nordeste 3.4 -- -- 87
2020-01-10 15:00:00 11.3 13 Nordeste 36 Nordeste 0.2 -- -- 87
2020-01-10 14:00:00 12 12 Nordeste 27 Nordeste 0 -- -- 85
2020-01-10 13:00:00 12.2 14 Nordeste 24 Nordeste 0 -- -- 84
2020-01-10 12:00:00 11.5 6 Nordeste 13 Nordeste 0 -- -- 92
2020-01-10 11:00:00 10.2 0 Calma 7 Noroeste 0 -- -- 100
2020-01-10 10:00:00 7.8 4 Sur 7 Sudeste 0 -- -- 100
2020-01-10 09:00:00 4.9 0 Calma 3 Sudoeste 0 -- -- 99
2020-01-10 08:00:00 3.8 0 Calma 3 Sudeste 0 -- -- 98
2020-01-10 07:00:00 4.7 0 Calma 8 Sudeste 0 -- -- 99
2020-01-10 06:00:00 4.7 0 Calma 3 Sudeste 0 -- -- 98
2020-01-10 05:00:00 6.5 2 Sur 9 Sudeste 0 -- -- 98
2020-01-10 04:00:00 4.5 0 Calma 5 Noroeste 0 -- -- 97
2020-01-10 03:00:00 4.7 0 Calma 4 Sur 0 -- -- 97
2020-01-10 02:00:00 5.4 0 Calma 7 Sudeste 0 -- -- 97
2020-01-10 01:00:00 6.8 4 Sur 9 Sudeste 0 -- -- 98
2020-01-10 00:00:00 5.5 0 Calma 4 Sudeste 0 -- -- 91
2020-01-09 23:00:00 6.4 0 Calma 6 Sur 0 -- -- 91
2020-01-09 22:00:00 7.4 4 Sudoeste 6 Sur 0 -- -- 91
2020-01-09 21:00:00 7.5 0 Calma 6 Sudoeste 0 -- -- 86
2020-01-09 20:00:00 8.9 0 Calma 6 Sur 0 -- -- 81
2020-01-09 19:00:00 10.7 4 Sudeste 5 Sudeste 0 -- -- 78
2020-01-09 18:00:00 12.3 0 Calma 10 Sudoeste 0 -- -- 73
2020-01-09 17:00:00 14 4 Sur 14 Sur 0 -- -- 66
2020-01-09 16:00:00 14.5 3 Sur 15 Sudeste 0 -- -- 65
2020-01-09 15:00:00 15.3 7 Nordeste 13 Nordeste 0 -- -- 63
2020-01-09 14:00:00 14.7 0 Calma 13 Sudeste 0 -- -- 63
2020-01-09 13:00:00 15.1 5 Sudeste 15 Este 0 -- -- 63
2020-01-09 12:00:00 13.7 2 Norte 7 Norte 0 -- -- 70
2020-01-09 11:00:00 12.2 2 Norte 6 Noroeste 0 -- -- 76
2020-01-09 10:00:00 7.7 0 Calma 2 Sudeste 0 -- -- 98
2020-01-09 09:00:00 2.8 0 Calma 0 Calma 0 -- -- 98
2020-01-09 08:00:00 2.2 0 Calma 2 Sur 0 -- -- 94
2020-01-09 07:00:00 2.3 0 Calma 0 Calma 0 -- -- 94
2020-01-09 06:00:00 2.7 0 Calma 2 Oeste 0 -- -- 94
2020-01-09 05:00:00 2.7 0 Calma 0 Calma 0 -- -- 93
2020-01-09 04:00:00 2.9 0 Calma 2 Sur 0 -- -- 92
2020-01-09 03:00:00 3.7 0 Calma 2 Sudoeste 0 -- -- 92
2020-01-09 02:00:00 3.9 0 Calma 3 Sudeste 0 -- -- 90
2020-01-09 01:00:00 4.3 0 Calma 2 Sur 0 -- -- 89
2020-01-09 00:00:00 5.2 0 Calma 2 Sur 0 -- -- 88
2020-01-08 23:00:00 6.1 0 Calma 2 Sudoeste 0 -- -- 87
2020-01-08 22:00:00 6.8 0 Calma 2 Sudoeste 0 -- -- 86
2020-01-08 21:00:00 7.5 0 Calma 3 Sudoeste 0 -- -- 85
2020-01-08 20:00:00 8.5 0 Calma 4 Noroeste 0 -- -- 82
2020-01-08 19:00:00 10.3 0 Calma 10 Nordeste 0 -- -- 78
2020-01-08 18:00:00 11.7 9 Nordeste 18 Norte 0 -- -- 75
2020-01-08 17:00:00 13.2 12 Nordeste 25 Nordeste 0 -- -- 72
2020-01-08 16:00:00 13.7 15 Nordeste 30 Nordeste 0 -- -- 69
2020-01-08 15:00:00 14 16 Norte 26 Nordeste 0 -- -- 68
2020-01-08 14:00:00 14 17 Nordeste -- -- -- -- -- 67
2020-01-08 13:00:00 -- -- -- -- -- -- -- -- --
2020-01-08 12:00:00 13.7 18 Norte 30 Norte 0 -- -- 66
2020-01-08 11:00:00 13.6 21 Norte 31 Norte 0 -- -- 71
2020-01-08 10:00:00 11.7 10 Norte 22 Norte 0 -- -- 78
2020-01-08 09:00:00 7.2 0 Calma 6 Norte 0 -- -- 98
2020-01-08 08:00:00 3.8 2 Sudeste 6 Sudeste 0 -- -- 96
2020-01-08 07:00:00 3.8 0 Calma 3 Sudeste 0 -- -- 95
2020-01-08 06:00:00 4.5 0 Calma 2 Sur 0 -- -- 95
2020-01-08 05:00:00 5.4 0 Calma 5 Sur 0 -- -- 95
2020-01-08 04:00:00 5.6 0 Calma 5 Sur 0 -- -- 96
2020-01-08 03:00:00 5.6 2 Sur 6 Sur 0 -- -- 96
2020-01-08 02:00:00 5.4 2 Sur 5 Sur 0 -- -- 94
2020-01-08 01:00:00 5.2 0 Calma 2 Sudoeste 0 -- -- 89
2020-01-08 00:00:00 5.6 0 Calma 3 Sur 0 -- -- 88
2020-01-07 23:00:00 6.9 2 Sudoeste 4 Sur 0 -- -- 89
2020-01-07 22:00:00 7.1 0 Calma 8 Sudoeste 0 -- -- 86
2020-01-07 21:00:00 7.4 0 Calma 5 Sudoeste 0 -- -- 84
2020-01-07 20:00:00 8.6 0 Calma 7 Sur 0 -- -- 82
2020-01-07 19:00:00 10.1 5 Sur 7 Sur 0 -- -- 81
2020-01-07 18:00:00 12.4 3 Sudeste 9 Nordeste 0 -- -- 73
2020-01-07 17:00:00 13.7 7 Nordeste 12 Nordeste 0 -- -- 69
2020-01-07 16:00:00 14.8 3 Nordeste 9 Nordeste 0 -- -- 63
2020-01-07 15:00:00 14.5 5 Nordeste 11 Nordeste 0 -- -- 65
2020-01-07 14:00:00 15.9 5 Nordeste 10 Nordeste 0 -- -- 57
2020-01-07 13:00:00 15 3 Noroeste 9 Oeste 0 -- -- 58
2020-01-07 12:00:00 14.4 4 Norte 12 Norte 0 -- -- 63
2020-01-07 11:00:00 13.6 5 Norte 7 Norte 0 -- -- 68
2020-01-07 10:00:00 11.5 0 Calma 2 Norte 0 -- -- 83
2020-01-07 09:00:00 9.2 0 Calma 4 Sur 0 -- -- 84
2020-01-07 08:00:00 9.1 0 Calma 3 Sudoeste 0 -- -- 84
2020-01-07 07:00:00 8.8 0 Calma 3 Sudoeste 0 -- -- 86
2020-01-07 06:00:00 9.4 0 Calma 5 Sudoeste 0 -- -- 81
2020-01-07 05:00:00 10 0 Calma 6 Oeste 0 -- -- 83
2020-01-07 04:00:00 10.3 0 Calma 6 Noroeste 0 -- -- 82
2020-01-07 03:00:00 10.6 3 Norte 8 Noroeste 0 -- -- 82
2020-01-07 02:00:00 10.1 0 Calma 2 Sur 0 -- -- 85
2020-01-07 01:00:00 9.9 0 Calma 0 Calma 0 -- -- 85
2020-01-07 00:00:00 10.3 0 Calma 2 Oeste 0 -- -- 83
2020-01-06 23:00:00 10.5 2 Oeste 4 Noroeste 0 -- -- 83
2020-01-06 22:00:00 10.6 0 Calma 3 Sudoeste 0 -- -- 81
2020-01-06 21:00:00 10.8 2 Sur 5 Sur 0 -- -- 80
2020-01-06 20:00:00 11.1 4 Sur 5 Sur 0 -- -- 78
2020-01-06 19:00:00 11.4 2 Sur 4 Sur 0 -- -- 77
2020-01-06 18:00:00 11.7 0 Calma 3 Sudoeste 0 -- -- 76
2020-01-06 17:00:00 12.4 0 Calma 5 Este 0 -- -- 71
2020-01-06 16:00:00 12.8 0 Calma 8 Norte 0 -- -- 73
2020-01-06 15:00:00 13.2 4 Norte 7 Sur 0 -- -- 68
2020-01-06 14:00:00 13.3 0 Calma 9 Sudoeste 0 -- -- 67
2020-01-06 13:00:00 12.9 4 Sudoeste 11 Oeste 0 -- -- 70
2020-01-06 12:00:00 12 5 Sudoeste 10 Sudoeste 0 -- -- 75
2020-01-06 11:00:00 10.5 0 Calma 6 Sur 0 -- -- 78
2020-01-06 10:00:00 10.4 4 Sur 8 Sudoeste 0 -- -- 76